Flint, MI (48554)

9:13 AM EDT on June 30, 2015 (GMT -0400)
Swartz Creek | | Change Station
CLOSE
Current Station
Personal Weather Station
Location: Swartz Creek, MI
Elevation: 807 ft
Nearby Weather Stations

Elev 807 ft 42.96 °N, 83.88 °W | Updated 6 minutes ago

Overcast
Overcast
62.2 °F
Feels Like 62.2 °F
N
0.0
Wind Variable Wind from West
Gusts 3.0 mph

Today
High -- | Low -- °F
--% Chance of Precip.
Yesterday
High -- | Low -- °F
Precip. -- in
5:59 AM 9:18 PM
Waxing Gibbous, 97% visible
Pressure 29.82 in
Visibility 10.0 miles
Clouds Mostly Cloudy 3400 ft
Overcast 6000 ft
Dew Point 61 °F
Humidity 94%
Rainfall in
Snow Depth Not available.
UV 1 out of 12
Pollen 3.20 out of 12
Air Quality Not available.
Flu Activity Sporadic
METAR KFNT 301253Z 00000KT 10SM BKN034 OVC060 19/16 A2982 RMK AO2 SLP096 T01890156

More Conditions Fewer Conditions

Pressure 29.82 in
Visibility 10.0 miles
Clouds Mostly Cloudy 3400 ft
Overcast 6000 ft
Dew Point 61 °F
Humidity 94%
Rainfall in
Snow Depth Not available.
UV 1 out of 12
Pollen 3.20 out of 12
Air Quality Not available.
Flu Activity Sporadic
METAR KFNT 301253Z 00000KT 10SM BKN034 OVC060 19/16 A2982 RMK AO2 SLP096 T01890156

More Conditions Fewer Conditions

10-Day Weather Forecast

×

Almanac

Astronomy

Jun. 30, 2015 Rise Set
Actual Time
Civil Twilight
Nautical Twilight
Astronomical Twilight
Moon
Length of Visible Light
Length of Day
Tomorrow will be .
, % of the Moon is Illuminated

Today's Extremes

State Highs State Lows

Community

WunderPhotos

Upload Photos

1,833,994 photos uploaded!

WunderBlogs® & News

Nearby

Air Quality

  Air Quality AQ Index Pollutant
Not available.

Snow Depth

Station Depth Elevation

Earthquake Activity

City Distance Mag. Time & Date
Minimum magnitude displayed is 2.5.

Coastal Water Temperatures

Place Temperature

Stations

Nearby Weather Stations

Station Location Temp. Windchill Dew Point Humidity Wind Precip. Elev Updated Type